sensor_id;sensor_type;location;lat;lon;timestamp;pressure;altitude;pressure_sealevel;temperature
34807;BMP280;18310;55.586;12.286;2023-08-01T00:00:34;99815.94;;;22.56
34807;BMP280;18310;55.586;12.286;2023-08-01T00:03:39;99820.28;;;22.57
34807;BMP280;18310;55.586;12.286;2023-08-01T00:06:44;99813.47;;;22.58
34807;BMP280;18310;55.586;12.286;2023-08-01T00:09:48;99818.25;;;22.58
34807;BMP280;18310;55.586;12.286;2023-08-01T00:12:55;99807.31;;;22.54
34807;BMP280;18310;55.586;12.286;2023-08-01T00:16:04;99796.84;;;22.58
34807;BMP280;18310;55.586;12.286;2023-08-01T00:19:09;99788.38;;;22.62
34807;BMP280;18310;55.586;12.286;2023-08-01T00:22:18;99790.69;;;22.63
34807;BMP280;18310;55.586;12.286;2023-08-01T00:25:23;99788.84;;;22.60
34807;BMP280;18310;55.586;12.286;2023-08-01T00:28:34;99778.66;;;22.57
34807;BMP280;18310;55.586;12.286;2023-08-01T00:31:40;99776.06;;;22.54
34807;BMP280;18310;55.586;12.286;2023-08-01T00:34:45;99773.72;;;22.52
34807;BMP280;18310;55.586;12.286;2023-08-01T00:37:49;99767.53;;;22.48
34807;BMP280;18310;55.586;12.286;2023-08-01T00:40:53;99768.00;;;22.47
34807;BMP280;18310;55.586;12.286;2023-08-01T00:43:58;99766.00;;;22.47
34807;BMP280;18310;55.586;12.286;2023-08-01T00:47:03;99757.69;;;22.47
34807;BMP280;18310;55.586;12.286;2023-08-01T00:50:09;99748.28;;;22.45
34807;BMP280;18310;55.586;12.286;2023-08-01T00:53:15;99743.69;;;22.42
34807;BMP280;18310;55.586;12.286;2023-08-01T00:56:20;99741.94;;;22.44
34807;BMP280;18310;55.586;12.286;2023-08-01T00:59:30;99743.97;;;22.44
34807;BMP280;18310;55.586;12.286;2023-08-01T01:02:39;99732.13;;;22.43
34807;BMP280;18310;55.586;12.286;2023-08-01T01:05:53;99721.78;;;22.44
34807;BMP280;18310;55.586;12.286;2023-08-01T01:09:02;99719.78;;;22.44
34807;BMP280;18310;55.586;12.286;2023-08-01T01:12:22;99705.31;;;22.40
34807;BMP280;18310;55.586;12.286;2023-08-01T01:15:29;99696.69;;;22.38
34807;BMP280;18310;55.586;12.286;2023-08-01T01:18:37;99677.28;;;22.38
34807;BMP280;18310;55.586;12.286;2023-08-01T01:21:44;99671.41;;;22.36
34807;BMP280;18310;55.586;12.286;2023-08-01T01:24:49;99668.63;;;22.36
34807;BMP280;18310;55.586;12.286;2023-08-01T01:27:54;99661.84;;;22.37
34807;BMP280;18310;55.586;12.286;2023-08-01T01:30:58;99656.31;;;22.37
34807;BMP280;18310;55.586;12.286;2023-08-01T01:34:04;99650.75;;;22.37
34807;BMP280;18310;55.586;12.286;2023-08-01T01:37:11;99650.00;;;22.37
34807;BMP280;18310;55.586;12.286;2023-08-01T01:40:15;99649.69;;;22.35
34807;BMP280;18310;55.586;12.286;2023-08-01T01:43:20;99644.59;;;22.33
34807;BMP280;18310;55.586;12.286;2023-08-01T01:46:25;99630.72;;;22.24
34807;BMP280;18310;55.586;12.286;2023-08-01T01:49:30;99623.31;;;22.21
34807;BMP280;18310;55.586;12.286;2023-08-01T01:52:36;99630.88;;;22.20
34807;BMP280;18310;55.586;12.286;2023-08-01T01:55:41;99626.28;;;22.17
34807;BMP280;18310;55.586;12.286;2023-08-01T01:58:48;99617.50;;;22.19
34807;BMP280;18310;55.586;12.286;2023-08-01T02:01:52;99620.09;;;22.22
34807;BMP280;18310;55.586;12.286;2023-08-01T02:04:57;99601.00;;;22.24
34807;BMP280;18310;55.586;12.286;2023-08-01T02:08:06;99606.25;;;22.22
34807;BMP280;18310;55.586;12.286;2023-08-01T02:11:11;99605.00;;;22.23
34807;BMP280;18310;55.586;12.286;2023-08-01T02:14:26;99596.22;;;22.25
34807;BMP280;18310;55.586;12.286;2023-08-01T02:17:30;99598.56;;;22.26
34807;BMP280;18310;55.586;12.286;2023-08-01T02:20:36;99590.09;;;22.30
34807;BMP280;18310;55.586;12.286;2023-08-01T02:23:44;99583.59;;;22.33
34807;BMP280;18310;55.586;12.286;2023-08-01T02:26:49;99586.38;;;22.33
34807;BMP280;18310;55.586;12.286;2023-08-01T02:29:53;99579.91;;;22.36
34807;BMP280;18310;55.586;12.286;2023-08-01T02:32:58;99567.91;;;22.39
34807;BMP280;18310;55.586;12.286;2023-08-01T02:36:03;99571.78;;;22.42
34807;BMP280;18310;55.586;12.286;2023-08-01T02:39:11;99567.44;;;22.41
34807;BMP280;18310;55.586;12.286;2023-08-01T02:42:23;99548.81;;;22.41
34807;BMP280;18310;55.586;12.286;2023-08-01T02:45:28;99553.41;;;22.44
34807;BMP280;18310;55.586;12.286;2023-08-01T02:48:34;99543.38;;;22.47
34807;BMP280;18310;55.586;12.286;2023-08-01T02:51:38;99537.09;;;22.37
34807;BMP280;18310;55.586;12.286;2023-08-01T02:54:45;99538.31;;;22.45
34807;BMP280;18310;55.586;12.286;2023-08-01T02:57:50;99538.94;;;22.49
34807;BMP280;18310;55.586;12.286;2023-08-01T03:00:54;99528.47;;;22.53
34807;BMP280;18310;55.586;12.286;2023-08-01T03:04:02;99531.53;;;22.55
34807;BMP280;18310;55.586;12.286;2023-08-01T03:07:07;99535.06;;;22.56
34807;BMP280;18310;55.586;12.286;2023-08-01T03:10:14;99532.13;;;22.59
34807;BMP280;18310;55.586;12.286;2023-08-01T03:13:38;99535.22;;;22.61
34807;BMP280;18310;55.586;12.286;2023-08-01T03:16:43;99531.19;;;22.62
34807;BMP280;18310;55.586;12.286;2023-08-01T03:19:47;99535.22;;;22.61
34807;BMP280;18310;55.586;12.286;2023-08-01T03:22:51;99535.22;;;22.61
34807;BMP280;18310;55.586;12.286;2023-08-01T03:25:59;99530.41;;;22.62
34807;BMP280;18310;55.586;12.286;2023-08-01T03:29:04;99520.72;;;22.66
34807;BMP280;18310;55.586;12.286;2023-08-01T03:32:46;99518.84;;;22.72
34807;BMP280;18310;55.586;12.286;2023-08-01T03:35:51;99505.72;;;22.73
34807;BMP280;18310;55.586;12.286;2023-08-01T03:38:54;99513.16;;;22.76
34807;BMP280;18310;55.586;12.286;2023-08-01T03:41:58;99509.44;;;22.70
34807;BMP280;18310;55.586;12.286;2023-08-01T03:45:02;99511.41;;;22.78
34807;BMP280;18310;55.586;12.286;2023-08-01T03:48:08;99498.63;;;22.81
34807;BMP280;18310;55.586;12.286;2023-08-01T03:51:13;99489.06;;;22.82
34807;BMP280;18310;55.586;12.286;2023-08-01T03:54:45;99484.28;;;22.82
34807;BMP280;18310;55.586;12.286;2023-08-01T03:57:49;99477.38;;;22.78
34807;BMP280;18310;55.586;12.286;2023-08-01T04:00:54;99470.75;;;22.75
34807;BMP280;18310;55.586;12.286;2023-08-01T04:03:59;99467.22;;;22.75
34807;BMP280;18310;55.586;12.286;2023-08-01T04:07:04;99466.72;;;22.76
34807;BMP280;18310;55.586;12.286;2023-08-01T04:10:09;99467.03;;;22.78
34807;BMP280;18310;55.586;12.286;2023-08-01T04:13:14;99466.56;;;22.80
34807;BMP280;18310;55.586;12.286;2023-08-01T04:16:19;99462.09;;;22.82
34807;BMP280;18310;55.586;12.286;2023-08-01T04:19:24;99457.00;;;22.81
34807;BMP280;18310;55.586;12.286;2023-08-01T04:22:27;99451.63;;;22.77
34807;BMP280;18310;55.586;12.286;2023-08-01T04:25:32;99445.81;;;22.75
34807;BMP280;18310;55.586;12.286;2023-08-01T04:28:37;99450.25;;;22.73
34807;BMP280;18310;55.586;12.286;2023-08-01T04:31:42;99449.03;;;22.74
34807;BMP280;18310;55.586;12.286;2023-08-01T04:34:46;99431.56;;;22.82
34807;BMP280;18310;55.586;12.286;2023-08-01T04:37:51;99437.38;;;22.94
34807;BMP280;18310;55.586;12.286;2023-08-01T04:40:58;99433.91;;;23.08
34807;BMP280;18310;55.586;12.286;2023-08-01T04:44:02;99442.78;;;23.21
34807;BMP280;18310;55.586;12.286;2023-08-01T04:47:06;99443.47;;;23.30
34807;BMP280;18310;55.586;12.286;2023-08-01T04:50:11;99443.13;;;23.37
34807;BMP280;18310;55.586;12.286;2023-08-01T04:53:15;99440.75;;;23.45
34807;BMP280;18310;55.586;12.286;2023-08-01T04:56:20;99437.31;;;23.50
34807;BMP280;18310;55.586;12.286;2023-08-01T04:59:23;99438.22;;;23.56
34807;BMP280;18310;55.586;12.286;2023-08-01T05:02:27;99432.72;;;23.62
34807;BMP280;18310;55.586;12.286;2023-08-01T05:05:34;99424.59;;;23.58
34807;BMP280;18310;55.586;12.286;2023-08-01T05:08:37;99431.63;;;23.68
34807;BMP280;18310;55.586;12.286;2023-08-01T05:11:42;99429.41;;;23.72
34807;BMP280;18310;55.586;12.286;2023-08-01T05:14:46;99431.53;;;23.77
34807;BMP280;18310;55.586;12.286;2023-08-01T05:17:49;99432.59;;;23.80
34807;BMP280;18310;55.586;12.286;2023-08-01T05:20:52;99430.09;;;23.82
34807;BMP280;18310;55.586;12.286;2023-08-01T05:23:57;99424.53;;;23.82
34807;BMP280;18310;55.586;12.286;2023-08-01T05:27:02;99433.66;;;23.82
34807;BMP280;18310;55.586;12.286;2023-08-01T05:30:07;99433.94;;;23.84
34807;BMP280;18310;55.586;12.286;2023-08-01T05:33:12;99435.00;;;23.87
34807;BMP280;18310;55.586;12.286;2023-08-01T05:36:17;99425.13;;;23.86
34807;BMP280;18310;55.586;12.286;2023-08-01T05:39:20;99419.22;;;23.93
34807;BMP280;18310;55.586;12.286;2023-08-01T05:42:26;99427.34;;;23.96
34807;BMP280;18310;55.586;12.286;2023-08-01T05:45:31;99423.13;;;24.01
34807;BMP280;18310;55.586;12.286;2023-08-01T05:48:37;99423.63;;;23.99
34807;BMP280;18310;55.586;12.286;2023-08-01T05:51:41;99412.38;;;23.94
34807;BMP280;18310;55.586;12.286;2023-08-01T05:54:46;99403.78;;;23.92
34807;BMP280;18310;55.586;12.286;2023-08-01T05:57:53;99409.34;;;23.92
34807;BMP280;18310;55.586;12.286;2023-08-01T06:00:57;99422.63;;;23.88
34807;BMP280;18310;55.586;12.286;2023-08-01T06:04:00;99420.75;;;23.79
34807;BMP280;18310;55.586;12.286;2023-08-01T06:07:05;99412.47;;;23.85
34807;BMP280;18310;55.586;12.286;2023-08-01T06:10:10;99417.56;;;23.86
34807;BMP280;18310;55.586;12.286;2023-08-01T06:13:17;99417.56;;;23.86
34807;BMP280;18310;55.586;12.286;2023-08-01T06:16:20;99413.44;;;23.82
34807;BMP280;18310;55.586;12.286;2023-08-01T06:19:30;99414.88;;;23.77
34807;BMP280;18310;55.586;12.286;2023-08-01T06:22:36;99413.03;;;23.74
34807;BMP280;18310;55.586;12.286;2023-08-01T06:25:39;99410.94;;;23.69
34807;BMP280;18310;55.586;12.286;2023-08-01T06:28:45;99403.72;;;23.63
34807;BMP280;18310;55.586;12.286;2023-08-01T06:31:50;99408.22;;;23.60
34807;BMP280;18310;55.586;12.286;2023-08-01T06:34:54;99413.28;;;23.62
34807;BMP280;18310;55.586;12.286;2023-08-01T06:37:59;99409.59;;;23.65
34807;BMP280;18310;55.586;12.286;2023-08-01T06:41:03;99395.22;;;23.66
34807;BMP280;18310;55.586;12.286;2023-08-01T06:44:31;99403.84;;;23.68
34807;BMP280;18310;55.586;12.286;2023-08-01T06:47:35;99400.88;;;23.72
34807;BMP280;18310;55.586;12.286;2023-08-01T06:50:38;99400.78;;;23.81
34807;BMP280;18310;55.586;12.286;2023-08-01T06:53:42;99401.56;;;23.96
34807;BMP280;18310;55.586;12.286;2023-08-01T06:56:46;99403.13;;;24.12
34807;BMP280;18310;55.586;12.286;2023-08-01T06:59:54;99396.00;;;24.25
34807;BMP280;18310;55.586;12.286;2023-08-01T07:02:58;99403.81;;;24.41
34807;BMP280;18310;55.586;12.286;2023-08-01T07:06:02;99411.66;;;24.57
34807;BMP280;18310;55.586;12.286;2023-08-01T07:09:12;99413.91;;;24.74
34807;BMP280;18310;55.586;12.286;2023-08-01T07:12:22;99409.00;;;24.83
34807;BMP280;18310;55.586;12.286;2023-08-01T07:15:35;99422.50;;;24.90
34807;BMP280;18310;55.586;12.286;2023-08-01T07:18:45;99422.03;;;24.92
34807;BMP280;18310;55.586;12.286;2023-08-01T07:21:51;99420.28;;;24.94
34807;BMP280;18310;55.586;12.286;2023-08-01T07:24:57;99413.03;;;25.02
34807;BMP280;18310;55.586;12.286;2023-08-01T07:28:22;99412.97;;;25.17
34807;BMP280;18310;55.586;12.286;2023-08-01T07:31:26;99410.69;;;25.36
34807;BMP280;18310;55.586;12.286;2023-08-01T07:34:30;99414.31;;;25.42
34807;BMP280;18310;55.586;12.286;2023-08-01T07:37:34;99403.31;;;25.58
34807;BMP280;18310;55.586;12.286;2023-08-01T07:40:40;99408.69;;;25.62
34807;BMP280;18310;55.586;12.286;2023-08-01T07:43:45;99403.44;;;25.69
34807;BMP280;18310;55.586;12.286;2023-08-01T07:46:48;99399.53;;;25.87
34807;BMP280;18310;55.586;12.286;2023-08-01T07:49:52;99393.53;;;26.00
34807;BMP280;18310;55.586;12.286;2023-08-01T07:52:56;99388.56;;;26.09
34807;BMP280;18310;55.586;12.286;2023-08-01T07:56:00;99395.81;;;26.27
34807;BMP280;18310;55.586;12.286;2023-08-01T07:59:06;99382.00;;;26.49
34807;BMP280;18310;55.586;12.286;2023-08-01T08:02:10;99389.78;;;26.76
34807;BMP280;18310;55.586;12.286;2023-08-01T08:05:15;99389.88;;;27.04
34807;BMP280;18310;55.586;12.286;2023-08-01T08:08:19;99385.38;;;27.29
34807;BMP280;18310;55.586;12.286;2023-08-01T08:11:24;99388.50;;;27.58
34807;BMP280;18310;55.586;12.286;2023-08-01T08:14:29;99389.50;;;27.83
34807;BMP280;18310;55.586;12.286;2023-08-01T08:17:33;99382.41;;;27.99
34807;BMP280;18310;55.586;12.286;2023-08-01T08:20:41;99393.31;;;28.19
34807;BMP280;18310;55.586;12.286;2023-08-01T08:23:45;99391.25;;;28.30
34807;BMP280;18310;55.586;12.286;2023-08-01T08:26:49;99387.19;;;28.37
34807;BMP280;18310;55.586;12.286;2023-08-01T08:29:54;99382.34;;;28.37
34807;BMP280;18310;55.586;12.286;2023-08-01T08:32:59;99389.16;;;28.42
34807;BMP280;18310;55.586;12.286;2023-08-01T08:36:07;99389.44;;;28.49
34807;BMP280;18310;55.586;12.286;2023-08-01T08:39:13;99394.75;;;28.53
34807;BMP280;18310;55.586;12.286;2023-08-01T08:42:18;99387.63;;;28.52
34807;BMP280;18310;55.586;12.286;2023-08-01T08:45:26;99381.53;;;28.42
34807;BMP280;18310;55.586;12.286;2023-08-01T08:48:35;99382.06;;;28.35
34807;BMP280;18310;55.586;12.286;2023-08-01T08:51:40;99379.84;;;28.28
34807;BMP280;18310;55.586;12.286;2023-08-01T08:54:46;99388.22;;;28.23
34807;BMP280;18310;55.586;12.286;2023-08-01T08:57:51;99391.53;;;28.16
34807;BMP280;18310;55.586;12.286;2023-08-01T09:00:58;99391.25;;;28.08
34807;BMP280;18310;55.586;12.286;2023-08-01T09:04:46;99390.28;;;28.00
34807;BMP280;18310;55.586;12.286;2023-08-01T09:07:51;99382.63;;;27.89
34807;BMP280;18310;55.586;12.286;2023-08-01T09:10:56;99398.16;;;27.74
34807;BMP280;18310;55.586;12.286;2023-08-01T09:14:03;99391.31;;;27.58
34807;BMP280;18310;55.586;12.286;2023-08-01T09:17:07;99382.88;;;27.36
34807;BMP280;18310;55.586;12.286;2023-08-01T09:20:13;99385.44;;;27.45
34807;BMP280;18310;55.586;12.286;2023-08-01T09:23:17;99384.16;;;27.57
34807;BMP280;18310;55.586;12.286;2023-08-01T09:26:20;99386.19;;;27.62
34807;BMP280;18310;55.586;12.286;2023-08-01T09:29:24;99370.69;;;27.72
34807;BMP280;18310;55.586;12.286;2023-08-01T09:32:29;99373.75;;;27.85
34807;BMP280;18310;55.586;12.286;2023-08-01T09:35:39;99376.53;;;27.97
34807;BMP280;18310;55.586;12.286;2023-08-01T09:38:43;99365.09;;;28.00
34807;BMP280;18310;55.586;12.286;2023-08-01T09:42:01;99371.44;;;28.06
34807;BMP280;18310;55.586;12.286;2023-08-01T09:45:58;99370.41;;;28.20
34807;BMP280;18310;55.586;12.286;2023-08-01T09:49:08;99359.22;;;28.26
34807;BMP280;18310;55.586;12.286;2023-08-01T09:52:11;99366.28;;;28.32
34807;BMP280;18310;55.586;12.286;2023-08-01T09:55:14;99364.25;;;28.33
34807;BMP280;18310;55.586;12.286;2023-08-01T09:58:21;99362.75;;;28.32
34807;BMP280;18310;55.586;12.286;2023-08-01T10:01:26;99361.47;;;28.33
34807;BMP280;18310;55.586;12.286;2023-08-01T10:04:30;99365.28;;;28.35
34807;BMP280;18310;55.586;12.286;2023-08-01T10:07:38;99365.28;;;28.41
34807;BMP280;18310;55.586;12.286;2023-08-01T10:10:41;99372.16;;;28.40
34807;BMP280;18310;55.586;12.286;2023-08-01T10:13:45;99382.34;;;28.37
34807;BMP280;18310;55.586;12.286;2023-08-01T10:16:51;99393.53;;;28.26
34807;BMP280;18310;55.586;12.286;2023-08-01T10:19:55;99396.38;;;28.15
34807;BMP280;18310;55.586;12.286;2023-08-01T10:23:00;99386.47;;;28.03
34807;BMP280;18310;55.586;12.286;2023-08-01T10:26:05;99396.63;;;27.95
34807;BMP280;18310;55.586;12.286;2023-08-01T10:29:09;99389.00;;;27.84
34807;BMP280;18310;55.586;12.286;2023-08-01T10:32:13;99386.97;;;27.68
34807;BMP280;18310;55.586;12.286;2023-08-01T10:35:16;99396.13;;;27.58
34807;BMP280;18310;55.586;12.286;2023-08-01T10:38:20;99401.69;;;27.47
34807;BMP280;18310;55.586;12.286;2023-08-01T10:41:26;99418.19;;;27.34
34807;BMP280;18310;55.586;12.286;2023-08-01T10:44:29;99407.41;;;26.99
34807;BMP280;18310;55.586;12.286;2023-08-01T10:47:36;99408.47;;;26.65
34807;BMP280;18310;55.586;12.286;2023-08-01T10:50:40;99408.78;;;26.35
34807;BMP280;18310;55.586;12.286;2023-08-01T10:53:43;99403.38;;;26.21
34807;BMP280;18310;55.586;12.286;2023-08-01T10:56:49;99383.75;;;26.10
34807;BMP280;18310;55.586;12.286;2023-08-01T10:59:52;99383.94;;;26.01
34807;BMP280;18310;55.586;12.286;2023-08-01T11:02:58;99379.78;;;25.90
34807;BMP280;18310;55.586;12.286;2023-08-01T11:06:02;99373.06;;;25.77
34807;BMP280;18310;55.586;12.286;2023-08-01T11:09:15;99376.81;;;25.68
34807;BMP280;18310;55.586;12.286;2023-08-01T11:12:18;99370.91;;;25.61
34807;BMP280;18310;55.586;12.286;2023-08-01T11:15:22;99378.25;;;25.58
34807;BMP280;18310;55.586;12.286;2023-08-01T11:18:26;99374.84;;;25.49
34807;BMP280;18310;55.586;12.286;2023-08-01T11:21:30;99380.81;;;25.62
34807;BMP280;18310;55.586;12.286;2023-08-01T11:24:33;99387.19;;;25.68
34807;BMP280;18310;55.586;12.286;2023-08-01T11:27:36;99384.47;;;25.73
34807;BMP280;18310;55.586;12.286;2023-08-01T11:30:39;99382.44;;;25.74
34807;BMP280;18310;55.586;12.286;2023-08-01T11:33:55;99360.66;;;25.72
34807;BMP280;18310;55.586;12.286;2023-08-01T11:36:59;99379.19;;;25.75
34807;BMP280;18310;55.586;12.286;2023-08-01T11:40:03;99382.19;;;25.72
34807;BMP280;18310;55.586;12.286;2023-08-01T11:43:07;99377.84;;;25.71
34807;BMP280;18310;55.586;12.286;2023-08-01T11:46:10;99386.72;;;25.69
34807;BMP280;18310;55.586;12.286;2023-08-01T11:49:15;99391.78;;;25.71
34807;BMP280;18310;55.586;12.286;2023-08-01T11:52:23;99389.00;;;25.71
34807;BMP280;18310;55.586;12.286;2023-08-01T11:55:26;99387.19;;;25.68
34807;BMP280;18310;55.586;12.286;2023-08-01T11:58:32;99392.75;;;25.68
34807;BMP280;18310;55.586;12.286;2023-08-01T12:01:38;99402.25;;;25.76
34807;BMP280;18310;55.586;12.286;2023-08-01T12:04:46;99395.50;;;25.88
34807;BMP280;18310;55.586;12.286;2023-08-01T12:07:49;99394.84;;;25.99
34807;BMP280;18310;55.586;12.286;2023-08-01T12:10:52;99387.81;;;26.09
34807;BMP280;18310;55.586;12.286;2023-08-01T12:14:03;99381.28;;;26.17
34807;BMP280;18310;55.586;12.286;2023-08-01T12:17:06;99402.69;;;26.31
34807;BMP280;18310;55.586;12.286;2023-08-01T12:23:08;99410.88;;;26.46
34807;BMP280;18310;55.586;12.286;2023-08-01T12:26:12;99407.22;;;26.66
34807;BMP280;18310;55.586;12.286;2023-08-01T12:29:15;99418.16;;;26.75
34807;BMP280;18310;55.586;12.286;2023-08-01T12:32:18;99422.75;;;26.78
34807;BMP280;18310;55.586;12.286;2023-08-01T12:35:22;99408.78;;;26.72
34807;BMP280;18310;55.586;12.286;2023-08-01T12:38:27;99408.69;;;26.61
34807;BMP280;18310;55.586;12.286;2023-08-01T12:41:30;99411.97;;;26.54
34807;BMP280;18310;55.586;12.286;2023-08-01T12:44:33;99403.28;;;26.46
34807;BMP280;18310;55.586;12.286;2023-08-01T12:47:37;99406.81;;;26.41
34807;BMP280;18310;55.586;12.286;2023-08-01T12:50:43;99397.88;;;26.32
34807;BMP280;18310;55.586;12.286;2023-08-01T12:53:48;99385.41;;;26.22
34807;BMP280;18310;55.586;12.286;2023-08-01T12:56:52;99402.59;;;26.20
34807;BMP280;18310;55.586;12.286;2023-08-01T12:59:55;99401.28;;;26.16
34807;BMP280;18310;55.586;12.286;2023-08-01T13:02:58;99399.25;;;26.11
34807;BMP280;18310;55.586;12.286;2023-08-01T13:06:01;99401.78;;;26.09
34807;BMP280;18310;55.586;12.286;2023-08-01T13:09:05;99398.09;;;25.97
34807;BMP280;18310;55.586;12.286;2023-08-01T13:12:09;99398.78;;;25.86
34807;BMP280;18310;55.586;12.286;2023-08-01T13:15:12;99394.38;;;25.80
34807;BMP280;18310;55.586;12.286;2023-08-01T13:18:19;99398.44;;;25.79
34807;BMP280;18310;55.586;12.286;2023-08-01T13:21:22;99395.91;;;25.75
34807;BMP280;18310;55.586;12.286;2023-08-01T13:24:27;99376.88;;;25.74
34807;BMP280;18310;55.586;12.286;2023-08-01T13:27:33;99378.41;;;25.75
34807;BMP280;18310;55.586;12.286;2023-08-01T13:30:37;99379.38;;;25.72
34807;BMP280;18310;55.586;12.286;2023-08-01T13:33:40;99379.31;;;25.66
34807;BMP280;18310;55.586;12.286;2023-08-01T13:36:43;99370.72;;;25.70
34807;BMP280;18310;55.586;12.286;2023-08-01T13:39:48;99383.75;;;25.78
34807;BMP280;18310;55.586;12.286;2023-08-01T13:42:51;99386.78;;;25.80
34807;BMP280;18310;55.586;12.286;2023-08-01T13:45:54;99394.69;;;25.82
34807;BMP280;18310;55.586;12.286;2023-08-01T13:48:57;99396.91;;;25.78
34807;BMP280;18310;55.586;12.286;2023-08-01T13:52:24;99402.94;;;25.71
34807;BMP280;18310;55.586;12.286;2023-08-01T13:55:28;99410.69;;;25.61
34807;BMP280;18310;55.586;12.286;2023-08-01T13:58:32;99411.75;;;25.64
34807;BMP280;18310;55.586;12.286;2023-08-01T14:01:35;99410.63;;;25.56
34807;BMP280;18310;55.586;12.286;2023-08-01T14:04:39;99422.00;;;25.52
34807;BMP280;18310;55.586;12.286;2023-08-01T14:07:44;99420.09;;;25.44
34807;BMP280;18310;55.586;12.286;2023-08-01T14:10:47;99416.25;;;25.36
34807;BMP280;18310;55.586;12.286;2023-08-01T14:13:50;99413.38;;;25.30
34807;BMP280;18310;55.586;12.286;2023-08-01T14:16:54;99419.38;;;25.23
34807;BMP280;18310;55.586;12.286;2023-08-01T14:19:57;99419.31;;;25.17
34807;BMP280;18310;55.586;12.286;2023-08-01T14:23:02;99414.16;;;25.10
34807;BMP280;18310;55.586;12.286;2023-08-01T14:26:06;99422.66;;;25.01
34807;BMP280;18310;55.586;12.286;2023-08-01T14:29:09;99413.72;;;24.97
34807;BMP280;18310;55.586;12.286;2023-08-01T14:32:12;99412.41;;;24.93
34807;BMP280;18310;55.586;12.286;2023-08-01T14:35:15;99408.31;;;24.88
34807;BMP280;18310;55.586;12.286;2023-08-01T14:38:20;99398.13;;;24.85
34807;BMP280;18310;55.586;12.286;2023-08-01T14:41:23;99418.91;;;24.84
34807;BMP280;18310;55.586;12.286;2023-08-01T14:44:51;99424.66;;;24.81
34807;BMP280;18310;55.586;12.286;2023-08-01T14:47:56;99425.91;;;24.80
34807;BMP280;18310;55.586;12.286;2023-08-01T14:50:59;99415.22;;;24.78
34807;BMP280;18310;55.586;12.286;2023-08-01T14:54:04;99418.31;;;24.80
34807;BMP280;18310;55.586;12.286;2023-08-01T14:57:08;99431.50;;;24.85
34807;BMP280;18310;55.586;12.286;2023-08-01T15:00:12;99433.34;;;24.88
34807;BMP280;18310;55.586;12.286;2023-08-01T15:03:16;99435.94;;;24.92
34807;BMP280;18310;55.586;12.286;2023-08-01T15:06:20;99436.69;;;24.92
34807;BMP280;18310;55.586;12.286;2023-08-01T15:09:25;99446.31;;;24.91
34807;BMP280;18310;55.586;12.286;2023-08-01T15:12:28;99454.84;;;24.88
34807;BMP280;18310;55.586;12.286;2023-08-01T15:15:35;99451.00;;;24.85
34807;BMP280;18310;55.586;12.286;2023-08-01T15:18:38;99450.94;;;24.80
34807;BMP280;18310;55.586;12.286;2023-08-01T15:21:41;99453.72;;;24.80
34807;BMP280;18310;55.586;12.286;2023-08-01T15:24:46;99456.03;;;24.81
34807;BMP280;18310;55.586;12.286;2023-08-01T15:27:49;99457.09;;;24.84
34807;BMP280;18310;55.586;12.286;2023-08-01T15:31:01;99460.69;;;24.90
34807;BMP280;18310;55.586;12.286;2023-08-01T15:34:05;99453.41;;;24.92
34807;BMP280;18310;55.586;12.286;2023-08-01T15:37:10;99453.94;;;24.96
34807;BMP280;18310;55.586;12.286;2023-08-01T15:40:14;99454.53;;;25.00
34807;BMP280;18310;55.586;12.286;2023-08-01T15:43:17;99445.97;;;25.04
34807;BMP280;18310;55.586;12.286;2023-08-01T15:46:23;99434.88;;;25.09
34807;BMP280;18310;55.586;12.286;2023-08-01T15:49:29;99442.56;;;25.14
34807;BMP280;18310;55.586;12.286;2023-08-01T15:52:32;99425.66;;;25.18
34807;BMP280;18310;55.586;12.286;2023-08-01T15:55:37;99413.19;;;25.13
34807;BMP280;18310;55.586;12.286;2023-08-01T15:58:42;99433.09;;;25.26
34807;BMP280;18310;55.586;12.286;2023-08-01T16:01:47;99444.53;;;25.28
34807;BMP280;18310;55.586;12.286;2023-08-01T16:04:52;99459.22;;;25.29
34807;BMP280;18310;55.586;12.286;2023-08-01T16:07:56;99456.75;;;25.16
34807;BMP280;18310;55.586;12.286;2023-08-01T16:11:01;99457.38;;;25.06
34807;BMP280;18310;55.586;12.286;2023-08-01T16:14:05;99455.75;;;24.99
34807;BMP280;18310;55.586;12.286;2023-08-01T16:17:08;99451.47;;;24.98
34807;BMP280;18310;55.586;12.286;2023-08-01T16:20:12;99448.59;;;24.93
34807;BMP280;18310;55.586;12.286;2023-08-01T16:23:17;99457.03;;;24.98
34807;BMP280;18310;55.586;12.286;2023-08-01T16:26:22;99466.91;;;24.99
34807;BMP280;18310;55.586;12.286;2023-08-01T16:29:26;99465.94;;;25.02
34807;BMP280;18310;55.586;12.286;2023-08-01T16:32:29;99461.13;;;25.03
34807;BMP280;18310;55.586;12.286;2023-08-01T16:35:33;99469.00;;;25.04
34807;BMP280;18310;55.586;12.286;2023-08-01T16:38:36;99474.28;;;25.02
34807;BMP280;18310;55.586;12.286;2023-08-01T16:41:42;99470.56;;;25.05
34807;BMP280;18310;55.586;12.286;2023-08-01T16:44:46;99462.22;;;25.05
34807;BMP280;18310;55.586;12.286;2023-08-01T16:47:49;99461.44;;;25.05
34807;BMP280;18310;55.586;12.286;2023-08-01T16:50:53;99465.28;;;25.07
34807;BMP280;18310;55.586;12.286;2023-08-01T16:53:57;99472.34;;;25.08
34807;BMP280;18310;55.586;12.286;2023-08-01T16:57:03;99477.72;;;25.12
34807;BMP280;18310;55.586;12.286;2023-08-01T17:00:08;99477.22;;;25.13
34807;BMP280;18310;55.586;12.286;2023-08-01T17:03:12;99478.28;;;25.16
34807;BMP280;18310;55.586;12.286;2023-08-01T17:06:15;99474.03;;;25.20
34807;BMP280;18310;55.586;12.286;2023-08-01T17:09:19;99482.94;;;25.24
34807;BMP280;18310;55.586;12.286;2023-08-01T17:14:04;99480.16;;;25.24
34807;BMP280;18310;55.586;12.286;2023-08-01T17:17:07;99485.72;;;25.24
34807;BMP280;18310;55.586;12.286;2023-08-01T17:20:10;99479.59;;;25.20
34807;BMP280;18310;55.586;12.286;2023-08-01T17:23:13;99483.38;;;25.17
34807;BMP280;18310;55.586;12.286;2023-08-01T17:26:16;99479.25;;;25.13
34807;BMP280;18310;55.586;12.286;2023-08-01T17:29:21;99485.50;;;25.08
34807;BMP280;18310;55.586;12.286;2023-08-01T17:32:24;99482.94;;;25.04
34807;BMP280;18310;55.586;12.286;2023-08-01T17:35:27;99485.59;;;24.99
34807;BMP280;18310;55.586;12.286;2023-08-01T17:38:30;99484.56;;;24.96